avis per tempestes more information blitzortung!


avis per Pluja more information rain snow radar


Visita la nostra xarxa de llocs de meteo:

Template documentation
and downloads

And another site



Thunderstorms From: 18-09-2018 20:00 Until: 19-09-2018 10:59 warning for: Thunderstorms Level: Yellow info button
Rain From: 18-09-2018 20:00 Until: 19-09-2018 10:59 warning for: Rain Level: Yellow info button

Pagina Historial Weather Underground text

Diari Resum Agost 4, 2017 Unitats:  Mètric    Imperial   Tant
« Previous Dia
SegĂźent Dia »
Diari Setmana Mensual Anual Personalitzada
  Maxima: Minima: Media:
Temperatura: -17.8 °C -5.4 °C -0.4 °C
Punt de rosada: -17.8 °C -11 °C -8.3 °C
Humitat: Humidity % 28 % 45 %
Wind Speed: 0 km/h 0 km/h 9.5 km/h
RĂ fegues de vent: 0 km/h - -
Vent:- - South
Pression baro: 0 hPa 34198.6 hPa -
Precipitacions: 0 mm    
Historical Graphs
 
 
Dades de taula per Agost 4, 2017
Temps Temperatura Punt de rosada Pression baro Vent Wind Speed RĂ fegues de vent Humitat Rainfall Rate (Hourly)
-17.8 °C -17.8 °C 0 hPa Calm     Humidity % 0 mm
00:02 -1.6 °C -11 °C 34256.2 hPa Calm     35 % 0 mm
00:05 -4.8 °C -8.7 °C 34327.3 hPa Calm     65 % 0 mm
00:07 -1.7 °C -10.9 °C 34256.2 hPa Calm     36 % 0 mm
00:12 -1.8 °C -10.7 °C 34256.2 hPa Calm     37 % 0 mm
00:15 -4.8 °C -8.8 °C 34327.3 hPa Calm     64 % 0 mm
00:17 -1.9 °C -10.8 °C 34293.4 hPa Calm     37 % 0 mm
00:25 -4.9 °C -8.9 °C 34327.3 hPa Calm     64 % 0 mm
00:35 -4.9 °C -8.9 °C 34293.4 hPa Calm     64 % 0 mm
00:45 -4.9 °C -8.8 °C 34293.4 hPa Calm     65 % 0 mm
00:55 -5.1 °C -8.9 °C 34327.3 hPa NW 2.6 km/h 2.6 km/h 65 % 0 mm
01:05 -5.1 °C -8.8 °C 34327.3 hPa Calm   2.6 km/h 66 % 0 mm
01:15 -5.2 °C -8.9 °C 34327.3 hPa Calm     66 % 0 mm
01:25 -5.2 °C -9.1 °C 34327.3 hPa Calm   2.6 km/h 65 % 0 mm
01:35 -5.3 °C -9.1 °C 34327.3 hPa Calm     66 % 0 mm
01:45 -5.4 °C -9.1 °C 34327.3 hPa WNW 2.6 km/h 2.6 km/h 66 % 0 mm
01:55 -5.4 °C -9.1 °C 34327.3 hPa NNW 2.6 km/h 5.1 km/h 66 % 0 mm
02:05 -5.4 °C -9.1 °C 34327.3 hPa North 2.6 km/h 2.6 km/h 66 % 0 mm
02:15 -5.4 °C -8.9 °C 34327.3 hPa Calm   5.1 km/h 67 % 0 mm
02:25 -5.3 °C -9 °C 34327.3 hPa Calm   2.6 km/h 66 % 0 mm
02:35 -5.1 °C -8.9 °C 34327.3 hPa Calm   2.6 km/h 65 % 0 mm
02:45 -4.9 °C -8.9 °C 34327.3 hPa Calm   2.6 km/h 64 % 0 mm
02:55 -4.9 °C -8.9 °C 34327.3 hPa East 2.6 km/h 2.6 km/h 64 % 0 mm
03:05 -5.1 °C -9.1 °C 34327.3 hPa SW 5.1 km/h 5.1 km/h 64 % 0 mm
03:15 -4.8 °C -8.8 °C 34327.3 hPa Calm   5.1 km/h 64 % 0 mm
03:25 -4.4 °C -8.7 °C 34361.1 hPa SE 2.6 km/h 5.1 km/h 62 % 0 mm
03:35 -4.2 °C -8.8 °C 34327.3 hPa East 2.6 km/h 5.1 km/h 60 % 0 mm
03:45 -3.8 °C -8.6 °C 34327.3 hPa East 2.6 km/h 5.1 km/h 59 % 0 mm
03:55 -3.7 °C -8.7 °C 34327.3 hPa ESE 2.6 km/h 2.6 km/h 57 % 0 mm
04:05 -3.2 °C -8.5 °C 34327.3 hPa Calm   5.1 km/h 56 % 0 mm
04:15 -2.9 °C -8.3 °C 34327.3 hPa SE 2.6 km/h 2.6 km/h 55 % 0 mm
04:25 -2.7 °C -8.3 °C 34327.3 hPa SE 2.6 km/h 5.1 km/h 54 % 0 mm
04:35 -2.3 °C -8.3 °C 34327.3 hPa SSE 2.6 km/h 5.1 km/h 52 % 0 mm
04:45 -2.2 °C -8.2 °C 34327.3 hPa SSW 2.6 km/h 2.6 km/h 52 % 0 mm
04:55 -2.1 °C -8.1 °C 34327.3 hPa SW 2.6 km/h 5.1 km/h 52 % 0 mm
05:05 -1.4 °C -7.8 °C 34327.3 hPa South 2.6 km/h 5.1 km/h 50 % 0 mm
10:16 -0.9 °C -7.7 °C 34327.3 hPa ESE 6.8 km/h 6.8 km/h 48 % 0 mm
10:21 -0.7 °C -7.6 °C 34327.3 hPa ESE 3.1 km/h   48 % 0 mm
10:26 -0.8 °C -7.8 °C 34327.3 hPa WNW 6 km/h 6 km/h 47 % 0 mm
10:31 -0.3 °C -7.6 °C 34327.3 hPa SSE 8 km/h 8 km/h 46 % 0 mm
10:36 -0.1 °C -7.3 °C 34361.1 hPa ESE 6 km/h 6 km/h 46 % 0 mm
10:41 0.1 °C -7.4 °C 34361.1 hPa ESE 6 km/h 6 km/h 45 % 0 mm
10:46 0.1 °C -7.3 °C 34361.1 hPa SSE 4.2 km/h 4.2 km/h 45 % 0 mm
10:51 0.4 °C -7.3 °C 34327.3 hPa SW 9 km/h 9 km/h 44 % 0 mm
10:56 0.6 °C -7.3 °C 34327.3 hPa SSW 9.8 km/h 9.8 km/h 43 % 0 mm
11:01 0.7 °C -7.2 °C 34327.3 hPa SW 6 km/h 6 km/h 43 % 0 mm
11:06 1.1 °C -7.1 °C 34327.3 hPa SSE 3.1 km/h 3.1 km/h 42 % 0 mm
11:11 1.1 °C -7.1 °C 34327.3 hPa ESE 9 km/h 9 km/h 42 % 0 mm
11:16 0.9 °C -7.2 °C 34327.3 hPa SSW 11.9 km/h 11.9 km/h 42 % 0 mm
11:21 0.9 °C -7.4 °C 34327.3 hPa SW 9 km/h 9 km/h 41 % 0 mm
11:26 1.2 °C -7.4 °C 34327.3 hPa SSW 11.9 km/h 11.9 km/h 40 % 0 mm
11:27 1.2 °C -7.2 °C 34327.3 hPa SW 9.3 km/h 9.3 km/h 41 % 0 mm
11:32 1.1 °C -7.5 °C 34327.3 hPa West 11.9 km/h 11.9 km/h 40 % 0 mm
11:37 1.4 °C -7.4 °C 34327.3 hPa ESE 3.1 km/h 3.1 km/h 39 % 0 mm
11:42 1.6 °C -7.6 °C 34327.3 hPa SW 15 km/h 15 km/h 38 % 0 mm
11:47 1.7 °C -7.9 °C 34327.3 hPa South 11.9 km/h 11.9 km/h 36 % 0 mm
11:52 1.7 °C -7.9 °C 34327.3 hPa SW 16.6 km/h 16.6 km/h 36 % 0 mm
11:57 1.6 °C -8.5 °C 34327.3 hPa South 15 km/h 15 km/h 34 % 0 mm
12:02 2.1 °C -7.8 °C 34327.3 hPa West 8.5 km/h 8.5 km/h 35 % 0 mm
12:07 1.9 °C -8.2 °C 34327.3 hPa WSW 11.9 km/h 11.9 km/h 34 % 0 mm
12:12 1.9 °C -8.5 °C 34327.3 hPa SSW 23.8 km/h 23.8 km/h 33 % 0 mm
12:17 2.1 °C -8.1 °C 34327.3 hPa ESE 9 km/h 9 km/h 34 % 0 mm
12:22 2.6 °C -7.7 °C 34327.3 hPa SSW 16.6 km/h 16.6 km/h 34 % 0 mm
12:27 2.2 °C -8.2 °C 34327.3 hPa SW 11.9 km/h 11.9 km/h 33 % 0 mm
12:32 2.3 °C -8.1 °C 34327.3 hPa SW 11.9 km/h 11.9 km/h 33 % 0 mm
12:37 2.6 °C -8.2 °C 34327.3 hPa WSW 9 km/h 9 km/h 32 % 0 mm
12:42 2.8 °C -7.9 °C 34327.3 hPa WSW 9.8 km/h 9.8 km/h 32 % 0 mm
12:47 2.6 °C -8.2 °C 34293.4 hPa South 9 km/h 9 km/h 32 % 0 mm
12:52 2.7 °C -8.1 °C 34293.4 hPa WNW 15 km/h 15 km/h 32 % 0 mm
12:57 3.1 °C -7.7 °C 34293.4 hPa SSW 6.8 km/h 6.8 km/h 32 % 0 mm
13:02 2.7 °C -8.3 °C 34256.2 hPa SW 15 km/h 15 km/h 31 % 0 mm
13:07 2.7 °C -8.3 °C 34256.2 hPa South 9 km/h 9 km/h 31 % 0 mm
13:12 3.1 °C -8.3 °C 34256.2 hPa SW 17.9 km/h 17.9 km/h 30 % 0 mm
13:17 2.9 °C -8.4 °C 34256.2 hPa SSW 20.9 km/h 20.9 km/h 30 % 0 mm
13:22 3.1 °C -8.3 °C 34256.2 hPa SW 17.9 km/h 17.9 km/h 30 % 0 mm
13:27 2.9 °C -8.5 °C 34256.2 hPa South 9 km/h 9 km/h 30 % 0 mm
13:32 3.3 °C -8.2 °C 34256.2 hPa SSW 17.9 km/h 17.9 km/h 30 % 0 mm
13:37 3.2 °C -8.2 °C 34256.2 hPa WSW 11.9 km/h 11.9 km/h 30 % 0 mm
13:42 3.4 °C -8.1 °C 34256.2 hPa WSW 9 km/h 9 km/h 30 % 0 mm
13:47 3.4 °C -8 °C 34222.3 hPa West 19.2 km/h 19.2 km/h 30 % 0 mm
13:52 3.1 °C -8.6 °C 34222.3 hPa WSW 15 km/h 15 km/h 29 % 0 mm
13:57 3.5 °C -8.3 °C 34222.3 hPa SE 15 km/h 15 km/h 29 % 0 mm
14:02 3.5 °C -8.3 °C 34256.2 hPa SW 17.9 km/h 17.9 km/h 29 % 0 mm
14:07 3.3 °C -8.4 °C 34256.2 hPa SW 20.9 km/h 20.9 km/h 29 % 0 mm
14:12 3.3 °C -8.4 °C 34256.2 hPa SW 15 km/h 15 km/h 29 % 0 mm
14:17 3.4 °C -8.4 °C 34256.2 hPa WSW 12.2 km/h 12.2 km/h 29 % 0 mm
14:22 3.2 °C -8.5 °C 34256.2 hPa South 15 km/h 15 km/h 29 % 0 mm
14:27 3.5 °C -8.3 °C 34256.2 hPa SW 11.9 km/h 11.9 km/h 29 % 0 mm
14:32 3.6 °C -8.2 °C 34256.2 hPa SSW 15 km/h 15 km/h 29 % 0 mm
14:37 3.3 °C -8.7 °C 34256.2 hPa South 9 km/h 9 km/h 28 % 0 mm
14:42 3.6 °C -8.2 °C 34256.2 hPa SW 15 km/h 15 km/h 29 % 0 mm
14:47 3.8 °C -7.9 °C 34256.2 hPa West 23.8 km/h 23.8 km/h 29 % 0 mm
14:48 3.8 °C -7.9 °C 34256.2 hPa West 23.8 km/h 23.8 km/h 29 % 0 mm
14:53 3.6 °C -8.4 °C 34256.2 hPa SSW 17.9 km/h 17.9 km/h 28 % 0 mm
14:58 3.3 °C -8.7 °C 34256.2 hPa SW 20.9 km/h 20.9 km/h 28 % 0 mm
15:03 3.4 °C -8.6 °C 34256.2 hPa SE 15 km/h 15 km/h 28 % 0 mm
15:08 3.2 °C -8.8 °C 34256.2 hPa West 29.8 km/h 29.8 km/h 28 % 0 mm
15:13 3.2 °C -8.8 °C 34256.2 hPa SW 26.9 km/h 26.9 km/h 28 % 0 mm
15:18 3.6 °C -8.5 °C 34222.3 hPa SSW 11.9 km/h 11.9 km/h 28 % 0 mm
15:23 3.6 °C -8.4 °C 34222.3 hPa SSE 15 km/h 15 km/h 28 % 0 mm
15:28 3.5 °C -8.6 °C 34222.3 hPa SSW 23.8 km/h 23.8 km/h 28 % 0 mm
15:33 3.5 °C -8.6 °C 34222.3 hPa SW 17.9 km/h 17.9 km/h 28 % 0 mm
15:38 3.2 °C -8.8 °C 34222.3 hPa SW 23.8 km/h 23.8 km/h 28 % 0 mm
15:43 3.3 °C -8.7 °C 34222.3 hPa SW 15 km/h 16.1 km/h 28 % 0 mm
15:48 3.1 °C -8.9 °C 34222.3 hPa West 26.9 km/h 26.9 km/h 28 % 0 mm
15:53 3.2 °C -8.8 °C 34222.3 hPa SW 15 km/h 15 km/h 28 % 0 mm
15:58 3.1 °C -8.9 °C 34222.3 hPa SW 26.9 km/h 26.9 km/h 28 % 0 mm
16:03 3.3 °C -8.7 °C 34222.3 hPa SW 20.9 km/h 20.9 km/h 28 % 0 mm
16:08 3.4 °C -8.7 °C 34222.3 hPa SW 20.9 km/h 20.9 km/h 28 % 0 mm
16:13 3.4 °C -8.6 °C 34222.3 hPa WSW 20.9 km/h 20.9 km/h 28 % 0 mm
16:18 3.3 °C -8.8 °C 34198.6 hPa SW 26.9 km/h 26.9 km/h 28 % 0 mm
16:23 3.4 °C -8.7 °C 34198.6 hPa West 17.9 km/h 17.9 km/h 28 % 0 mm
16:28 3.1 °C -8.9 °C 34198.6 hPa SW 23.8 km/h 23.8 km/h 28 % 0 mm
16:33 3.3 °C -8.7 °C 34198.6 hPa SSE 15 km/h 15 km/h 28 % 0 mm
16:38 3.5 °C -8.6 °C 34198.6 hPa South 15 km/h 15 km/h 28 % 0 mm
16:43 3.5 °C -8.6 °C 34198.6 hPa SSW 16.1 km/h 16.1 km/h 28 % 0 mm
16:48 3.4 °C -8.7 °C 34222.3 hPa SSW 15.6 km/h 15.6 km/h 28 % 0 mm
16:53 3.3 °C -8.7 °C 34222.3 hPa WSW 11.9 km/h 11.9 km/h 28 % 0 mm
16:58 3.3 °C -8.7 °C 34222.3 hPa WSW 17.9 km/h 17.9 km/h 28 % 0 mm
17:00 3.4 °C -8.7 °C 34222.3 hPa SW 20.9 km/h 20.9 km/h 28 % 0 mm
17:05 3.4 °C -8.7 °C 34198.6 hPa West 15 km/h 15 km/h 28 % 0 mm
17:10 3.1 °C -8.9 °C 34198.6 hPa SW 15 km/h 15 km/h 28 % 0 mm
17:15 3.1 °C -8.9 °C 34198.6 hPa South 11.9 km/h 11.9 km/h 28 % 0 mm
17:20 3.2 °C -8.8 °C 34222.3 hPa ESE 9.8 km/h 9.8 km/h 28 % 0 mm
17:25 2.7 °C -9.3 °C 34222.3 hPa WSW 9 km/h 9 km/h 28 % 0 mm
17:30 2.9 °C -9.1 °C 34222.3 hPa SSW 20.9 km/h 20.9 km/h 28 % 0 mm
17:35 2.9 °C -9.1 °C 34222.3 hPa North 9.8 km/h 9.8 km/h 28 % 0 mm
17:40 2.2 °C -9.3 °C 34222.3 hPa North 9 km/h 9 km/h 29 % 0 mm
17:45 2.2 °C -9.3 °C 34222.3 hPa SSE 15 km/h 15 km/h 29 % 0 mm
17:50 2 °C -9.6 °C 34198.6 hPa West 12.7 km/h 12.7 km/h 29 % 0 mm
17:55 2.2 °C -9.4 °C 34198.6 hPa NE 6 km/h 6 km/h 29 % 0 mm
18:00 2.1 °C -9.4 °C 34198.6 hPa West 6 km/h 6 km/h 29 % 0 mm
18:05 2.3 °C -9.3 °C 34222.3 hPa ENE 8 km/h 8 km/h 29 % 0 mm
18:10 2.3 °C -9.3 °C 34222.3 hPa ENE 9 km/h 9 km/h 29 % 0 mm
18:15 2.5 °C -9.1 °C 34222.3 hPa SW 11.9 km/h 11.9 km/h 29 % 0 mm
18:20 2.5 °C -9.1 °C 34222.3 hPa SSW 6 km/h 6 km/h 29 % 0 mm
18:25 1.9 °C -9.6 °C 34222.3 hPa South 6.3 km/h 6.3 km/h 29 % 0 mm
18:30 2.1 °C -9.4 °C 34222.3 hPa SW 15 km/h 15 km/h 29 % 0 mm
18:35 2 °C -9.6 °C 34222.3 hPa North 20.9 km/h 20.9 km/h 29 % 0 mm
18:40 1.5 °C -9.4 °C 34222.3 hPa ENE 15 km/h 15 km/h 31 % 0 mm
18:41 1.5 °C -9.4 °C 34222.3 hPa East 9 km/h 9 km/h 31 % 0 mm
18:46 1.1 °C -9.2 °C 34222.3 hPa NE 9 km/h 9 km/h 33 % 0 mm
18:51 0.9 °C -9.3 °C 34222.3 hPa SSE 7.6 km/h 7.6 km/h 33 % 0 mm
18:56 0.9 °C -9.4 °C 34222.3 hPa ESE 9 km/h 9 km/h 33 % 0 mm
19:01 0.7 °C -9.3 °C 34256.2 hPa East 18.3 km/h 18.3 km/h 34 % 0 mm
19:06 0.5 °C -9 °C 34256.2 hPa ESE 15 km/h 15 km/h 36 % 0 mm
19:11 0.4 °C -9.1 °C 34256.2 hPa SE 17.9 km/h 17.9 km/h 36 % 0 mm
19:16 0.3 °C -8.9 °C 34256.2 hPa ENE 6 km/h 6 km/h 37 % 0 mm
19:21 0.3 °C -8.9 °C 34256.2 hPa East 6 km/h 6 km/h 37 % 0 mm
19:25 -3.2 °C -7.4 °C 34327.3 hPa Calm   2.6 km/h 63 % 0 mm
19:26 0.3 °C -8.9 °C 34256.2 hPa WSW 11.9 km/h 11.9 km/h 37 % 0 mm
19:31 0.4 °C -8.8 °C 34256.2 hPa South 8.5 km/h 8.5 km/h 37 % 0 mm
19:35 -3.3 °C -7.5 °C 34327.3 hPa Calm     63 % 0 mm
19:36 0.5 °C -8.7 °C 34256.2 hPa SW 9 km/h 9 km/h 37 % 0 mm
19:41 0.5 °C -8.7 °C 34256.2 hPa SW 6 km/h 6 km/h 37 % 0 mm
19:45 -3.3 °C -7.4 °C 34327.3 hPa West 2.6 km/h 5.1 km/h 64 % 0 mm
19:46 0.6 °C -8.8 °C 34256.2 hPa WSW 11.9 km/h 11.9 km/h 36 % 0 mm
19:51 0.5 °C -8.7 °C 34256.2 hPa NE 11.9 km/h 11.9 km/h 37 % 0 mm
19:55 -3.4 °C -7.7 °C 34327.3 hPa Calm   2.6 km/h 63 % 0 mm
19:56 0.1 °C -8.8 °C 34256.2 hPa South 9 km/h 9 km/h 38 % 0 mm
20:01 -0.3 °C -8.9 °C 34256.2 hPa ENE 9 km/h 9 km/h 39 % 0 mm
20:05 -3.6 °C -7.7 °C 34327.3 hPa Calm   5.1 km/h 63 % 0 mm
20:06 -0.5 °C -8.9 °C 34256.2 hPa NE 6.8 km/h 6.8 km/h 40 % 0 mm
20:11 -0.7 °C -8.7 °C 34256.2 hPa ENE 11.9 km/h 11.9 km/h 42 % 0 mm
20:15 -3.7 °C -7.9 °C 34327.3 hPa SW 2.6 km/h 5.1 km/h 63 % 0 mm
20:16 -0.9 °C -8.7 °C 34256.2 hPa ENE 15 km/h 15 km/h 43 % 0 mm
20:21 -1.1 °C -8.6 °C 34256.2 hPa NE 17.9 km/h 17.9 km/h 44 % 0 mm
20:25 -3.7 °C -7.8 °C 34327.3 hPa Calm   2.6 km/h 64 % 0 mm
20:26 -1.1 °C -8.4 °C 34256.2 hPa ESE 15 km/h 15 km/h 45 % 0 mm
20:31 -1.2 °C -8.4 °C 34222.3 hPa ESE 11.9 km/h 11.9 km/h 46 % 0 mm
20:35 -3.8 °C -7.7 °C 34361.1 hPa WSW 2.6 km/h 5.1 km/h 65 % 0 mm
20:36 -1.3 °C -8.4 °C 34222.3 hPa East 15 km/h 15 km/h 46 % 0 mm
20:41 -1.3 °C -8.3 °C 34222.3 hPa East 15 km/h 15 km/h 47 % 0 mm
20:45 -3.8 °C -7.9 °C 34361.1 hPa WSW 5.1 km/h 5.1 km/h 64 % 0 mm
20:46 -1.4 °C -8.2 °C 34256.2 hPa NNE 15 km/h 15 km/h 48 % 0 mm
20:51 -1.6 °C -8.3 °C 34256.2 hPa ENE 17.9 km/h 17.9 km/h 48 % 0 mm
20:55 -3.9 °C -7.7 °C 34327.3 hPa SW 2.6 km/h 5.1 km/h 66 % 0 mm
20:56 -1.6 °C -8.2 °C 34256.2 hPa ESE 15 km/h 15 km/h 49 % 0 mm
21:01 -1.7 °C -7.9 °C 34256.2 hPa ENE 11.9 km/h 11.9 km/h 51 % 0 mm
21:05 -4 °C -7.8 °C 34327.3 hPa SW 2.6 km/h 5.1 km/h 66 % 0 mm
21:06 -1.8 °C -7.9 °C 34256.2 hPa ENE 15 km/h 15 km/h 51 % 0 mm
21:11 -1.9 °C -7.9 °C 34256.2 hPa NE 15 km/h 15 km/h 52 % 0 mm
21:15 -4 °C -7.6 °C 34327.3 hPa WSW 2.6 km/h 2.6 km/h 67 % 0 mm
21:21 -2 °C -7.8 °C 34256.2 hPa ESE 11.9 km/h 11.9 km/h 53 % 0 mm
21:25 -4 °C -7.6 °C 34327.3 hPa SW 2.6 km/h 5.1 km/h 67 % 0 mm
21:26 -2.1 °C -7.6 °C 34256.2 hPa ENE 12.2 km/h 12.2 km/h 55 % 0 mm
21:31 -2.2 °C -7.7 °C 34256.2 hPa East 15 km/h 15 km/h 55 % 0 mm
21:35 -4.1 °C -7.6 °C 34327.3 hPa WSW 2.6 km/h 5.1 km/h 68 % 0 mm
21:36 -2.2 °C -7.5 °C 34256.2 hPa NE 11.9 km/h 11.9 km/h 56 % 0 mm
21:41 -2.2 °C -7.6 °C 34256.2 hPa East 15 km/h 15 km/h 56 % 0 mm
21:45 -4.2 °C -7.7 °C 34327.3 hPa Calm     68 % 0 mm
21:46 -2.3 °C -7.4 °C 34293.4 hPa ESE 15 km/h 15 km/h 57 % 0 mm
21:51 -2.3 °C -7.5 °C 34293.4 hPa ENE 11.9 km/h 11.9 km/h 57 % 0 mm
21:55 -4.2 °C -7.7 °C 34327.3 hPa Calm   2.6 km/h 68 % 0 mm
21:56 -2.4 °C -7.4 °C 34293.4 hPa East 15 km/h 15 km/h 58 % 0 mm
22:01 -2.4 °C -7.4 °C 34327.3 hPa ESE 14.5 km/h 14.5 km/h 58 % 0 mm
22:05 -4.2 °C -7.6 °C 34293.4 hPa Calm     69 % 0 mm
22:06 -2.4 °C -7.3 °C 34327.3 hPa East 11.9 km/h 11.9 km/h 59 % 0 mm
22:11 -2.5 °C -7.5 °C 34327.3 hPa East 9 km/h 9 km/h 58 % 0 mm
22:15 -4.3 °C -7.8 °C 34293.4 hPa Calm   5.1 km/h 68 % 0 mm
22:16 -2.5 °C -7.2 °C 34327.3 hPa ESE 15 km/h 15 km/h 60 % 0 mm
22:21 -2.6 °C -7.3 °C 34327.3 hPa East 9.3 km/h 9.3 km/h 60 % 0 mm
22:25 -4.3 °C -7.7 °C 34327.3 hPa Calm   2.6 km/h 69 % 0 mm
22:26 -2.6 °C -7.3 °C 34327.3 hPa ENE 10.3 km/h 10.3 km/h 60 % 0 mm
22:31 -2.6 °C -7.3 °C 34327.3 hPa ENE 9.8 km/h 9.8 km/h 60 % 0 mm
22:35 -4.3 °C -7.7 °C 34327.3 hPa Calm     69 % 0 mm
22:36 -2.6 °C -7.3 °C 34327.3 hPa East 9.3 km/h 9.3 km/h 60 % 0 mm
22:41 -2.7 °C -7.3 °C 34327.3 hPa ENE 9 km/h 9 km/h 60 % 0 mm
22:45 -4.3 °C -7.7 °C 34327.3 hPa Calm     69 % 0 mm
22:50 -4.3 °C -7.5 °C 34327.3 hPa Calm     70 % 0 mm
22:51 -2.7 °C -7.3 °C 34327.3 hPa East 6.3 km/h 6.3 km/h 61 % 0 mm
22:56 -2.7 °C -7.3 °C 34327.3 hPa East 9 km/h 9 km/h 61 % 0 mm
23:00 -4.2 °C -7.4 °C 34327.3 hPa Calm     70 % 0 mm
23:01 -2.7 °C -7.3 °C 34327.3 hPa East 6 km/h 6 km/h 61 % 0 mm
23:06 -2.8 °C -7.3 °C 34327.3 hPa ESE 3.1 km/h   61 % 0 mm
23:10 -4.4 °C -7.7 °C 34327.3 hPa Calm   2.6 km/h 69 % 0 mm
23:11 -2.8 °C -7.4 °C 34327.3 hPa WSW 8.5 km/h 8.5 km/h 60 % 0 mm
23:16 -2.8 °C -7.4 °C 34327.3 hPa WSW 6 km/h 6 km/h 61 % 0 mm
23:20 -4.6 °C -7.7 °C 34327.3 hPa SW 2.6 km/h 5.1 km/h 71 % 0 mm
23:21 -2.9 °C -7.3 °C 34327.3 hPa SW 3.1 km/h   62 % 0 mm
23:22 -2.9 °C -7.3 °C 34327.3 hPa SW 3.7 km/h 3.7 km/h 62 % 0 mm
23:27 -2.9 °C -7.3 °C 34327.3 hPa WSW 3.1 km/h 3.1 km/h 62 % 0 mm
23:30 -4.6 °C -7.7 °C 34327.3 hPa Calm   2.6 km/h 71 % 0 mm
23:32 -2.9 °C -7.3 °C 34327.3 hPa SW 3.1 km/h 3.1 km/h 62 % 0 mm
23:37 -3 °C -7.4 °C 34327.3 hPa SW 3.1 km/h 4.2 km/h 62 % 0 mm
23:40 -4.6 °C -7.7 °C 34327.3 hPa WSW 2.6 km/h 5.1 km/h 71 % 0 mm
23:42 -3.1 °C -7.4 °C 34327.3 hPa WSW 3.1 km/h   62 % 0 mm
23:47 -3.1 °C -7.3 °C 34327.3 hPa SW 5.6 km/h 5.6 km/h 63 % 0 mm
23:50 -4.6 °C -7.7 °C 34327.3 hPa Calm   5.1 km/h 71 % 0 mm
23:52 -3.1 °C -7.3 °C 34327.3 hPa Calm     63 % 0 mm
23:57 -3.1 °C -7.3 °C 34327.3 hPa SW 6 km/h 6 km/h 63 % 0 mm
Meteo Sesrovires
Elogis d' Weather Underground - 1.5 mb

Guio original per  Jim McMurry - jmcmurry@mwt.net Adaptat per a la plantilla per  Wim van der Kuil - Leuven-Template.eu

Trobareu la nostra informacio del temps tambe a:

Weather Underground

AWEKAS